createdAt,value
2023-01-23T06:49:40.653Z,1031.80
2023-01-23T06:50:20.333Z,1031.88
2023-01-23T06:51:12.902Z,1031.84
2023-01-23T06:52:12.820Z,1031.95
2023-01-23T06:53:12.799Z,1031.95
2023-01-23T06:54:12.819Z,1031.94
2023-01-23T06:55:14.552Z,1031.90
2023-01-23T06:56:12.757Z,1031.93
2023-01-23T06:57:12.772Z,1031.90
2023-01-23T06:58:12.732Z,1031.91
2023-01-23T06:59:12.745Z,1031.91
2023-01-23T07:00:12.711Z,1031.88
2023-01-23T07:01:12.711Z,1031.86
2023-01-23T07:02:12.780Z,1031.85
2023-01-23T07:03:12.714Z,1031.93
2023-01-23T07:04:12.680Z,1031.90
2023-01-23T07:05:12.664Z,1031.96
2023-01-23T07:06:12.645Z,1031.96
2023-01-23T07:07:12.621Z,1032.03
2023-01-23T07:08:12.662Z,1032.04
2023-01-23T07:09:12.600Z,1032.07
2023-01-23T07:10:12.592Z,1032.03
2023-01-23T07:11:12.572Z,1032.05
2023-01-23T07:12:12.558Z,1031.98
2023-01-23T07:13:12.586Z,1032.05
2023-01-23T07:14:12.532Z,1031.99
2023-01-23T07:15:12.545Z,1032.00
2023-01-23T07:16:12.591Z,1032.08
2023-01-23T07:17:12.498Z,1031.95
2023-01-23T07:18:12.492Z,1031.98
2023-01-23T07:19:12.499Z,1032.00
2023-01-23T07:20:12.498Z,1032.06
2023-01-23T07:21:12.471Z,1032.04
2023-01-23T07:22:12.428Z,1032.06
2023-01-23T07:23:12.432Z,1032.06
2023-01-23T07:24:12.414Z,1032.03
2023-01-23T07:25:12.420Z,1032.04
2023-01-23T07:26:12.393Z,1032.06
2023-01-23T07:27:12.385Z,1032.06
2023-01-23T07:28:12.382Z,1032.04
2023-01-23T07:29:12.352Z,1032.13
2023-01-23T07:30:12.341Z,1032.10
2023-01-23T07:31:12.415Z,1032.08
2023-01-23T07:32:12.318Z,1032.14
2023-01-23T07:33:12.317Z,1032.09
2023-01-23T07:34:12.300Z,1032.12
2023-01-23T07:35:12.291Z,1032.10
2023-01-23T07:36:12.279Z,1032.10
2023-01-23T07:37:12.268Z,1032.05
2023-01-23T07:38:12.297Z,1032.04
2023-01-23T07:39:12.243Z,1032.04
2023-01-23T07:40:12.207Z,1032.01
2023-01-23T07:41:12.212Z,1032.08
2023-01-23T07:42:12.206Z,1032.05
2023-01-23T07:43:12.219Z,1032.05
2023-01-23T07:44:12.171Z,1032.05
2023-01-23T07:45:12.147Z,1032.04
2023-01-23T07:46:12.206Z,1032.09
2023-01-23T07:47:12.142Z,1032.14
2023-01-23T07:48:12.139Z,1032.12
2023-01-23T07:49:12.120Z,1032.18
2023-01-23T07:50:12.107Z,1032.16
2023-01-23T07:51:12.132Z,1032.16
2023-01-23T07:52:12.079Z,1032.17
2023-01-23T07:53:12.072Z,1032.15
2023-01-23T07:54:12.051Z,1032.17
2023-01-23T07:55:12.043Z,1032.16
2023-01-23T07:56:12.008Z,1032.15
2023-01-23T07:57:11.998Z,1032.11
2023-01-23T07:58:12.002Z,1032.08
2023-01-23T07:59:12.001Z,1032.14
2023-01-23T08:00:11.988Z,1032.08
2023-01-23T08:01:12.051Z,1032.10
2023-01-23T08:02:11.942Z,1032.14
2023-01-23T08:03:11.956Z,1032.09
2023-01-23T08:04:11.988Z,1032.12
2023-01-23T08:05:11.932Z,1032.19
2023-01-23T08:06:11.887Z,1032.05
2023-01-23T08:07:11.878Z,1032.16
2023-01-23T08:08:13.772Z,1032.09
2023-01-23T08:09:11.868Z,1032.20
2023-01-23T08:10:11.864Z,1032.10
2023-01-23T08:11:11.848Z,1032.18
2023-01-23T08:12:11.815Z,1032.21
2023-01-23T08:13:11.844Z,1032.21
2023-01-23T08:14:11.811Z,1032.19
2023-01-23T08:15:11.790Z,1032.09
2023-01-23T08:16:13.649Z,1032.19
2023-01-23T08:17:11.778Z,1032.25
2023-01-23T08:18:11.761Z,1032.21
2023-01-23T08:19:11.745Z,1032.18
2023-01-23T08:20:11.748Z,1032.23
2023-01-23T08:21:11.719Z,1032.29
2023-01-23T08:22:11.707Z,1032.32
2023-01-23T08:23:11.684Z,1032.31
2023-01-23T08:24:11.657Z,1032.29
2023-01-23T08:25:11.657Z,1032.32
2023-01-23T08:26:11.637Z,1032.32
2023-01-23T08:27:12.590Z,1032.33
2023-01-23T08:28:11.647Z,1032.26
2023-01-23T08:29:11.606Z,1032.29
2023-01-23T08:30:11.598Z,1032.30
2023-01-23T08:31:11.726Z,1032.30
2023-01-23T08:32:11.566Z,1032.36
2023-01-23T08:33:11.571Z,1032.39
2023-01-23T08:34:11.545Z,1032.35
2023-01-23T08:35:11.555Z,1032.39
2023-01-23T08:36:11.569Z,1032.36
2023-01-23T08:37:11.526Z,1032.41
2023-01-23T08:38:11.499Z,1032.45
2023-01-23T08:39:11.503Z,1032.49
2023-01-23T08:40:11.477Z,1032.45
2023-01-23T08:41:11.477Z,1032.55
2023-01-23T08:42:11.485Z,1032.57
2023-01-23T08:43:11.427Z,1032.51
2023-01-23T08:44:11.458Z,1032.55
2023-01-23T08:45:11.415Z,1032.61
2023-01-23T08:46:11.422Z,1032.60
2023-01-23T08:47:11.380Z,1032.56
2023-01-23T08:48:11.369Z,1032.63
2023-01-23T08:49:11.531Z,1032.65
2023-01-23T08:50:11.335Z,1032.68
2023-01-23T08:51:11.377Z,1032.71
2023-01-23T08:52:11.345Z,1032.69
2023-01-23T08:53:11.330Z,1032.72
2023-01-23T08:54:11.301Z,1032.71
2023-01-23T08:55:11.298Z,1032.63
2023-01-23T08:56:11.295Z,1032.73
2023-01-23T08:57:11.255Z,1032.72
2023-01-23T08:58:11.251Z,1032.74
2023-01-23T08:59:11.244Z,1032.75
2023-01-23T09:00:11.231Z,1032.75
2023-01-23T09:01:11.254Z,1032.81
2023-01-23T09:02:11.207Z,1032.74
2023-01-23T09:03:11.588Z,1032.81
2023-01-23T09:04:11.200Z,1032.91
2023-01-23T09:05:11.169Z,1032.94
2023-01-23T09:06:11.178Z,1032.93
2023-01-23T09:07:11.140Z,1032.88
2023-01-23T09:08:11.117Z,1032.95
2023-01-23T09:09:11.107Z,1032.91
2023-01-23T09:10:11.140Z,1033.02
2023-01-23T09:11:11.108Z,1033.03
2023-01-23T09:12:11.100Z,1033.07
2023-01-23T09:13:11.046Z,1033.09
2023-01-23T09:14:11.050Z,1033.09
2023-01-23T09:15:11.043Z,1033.05
2023-01-23T09:16:11.092Z,1033.02
2023-01-23T09:17:10.996Z,1033.03
2023-01-23T09:18:11.006Z,1033.02
2023-01-23T09:19:10.977Z,1033.06
2023-01-23T09:20:10.979Z,1033.01
2023-01-23T09:21:10.959Z,1033.05
2023-01-23T09:22:10.945Z,1033.02
2023-01-23T09:23:10.930Z,1033.05
2023-01-23T09:24:10.928Z,1033.08
2023-01-23T09:25:10.894Z,1033.12
2023-01-23T09:26:10.897Z,1033.11
2023-01-23T09:27:10.874Z,1033.13
2023-01-23T09:28:10.882Z,1033.16
2023-01-23T09:29:10.867Z,1033.17
2023-01-23T09:30:10.862Z,1033.14
2023-01-23T09:31:10.829Z,1033.14
2023-01-23T09:32:10.825Z,1033.19
2023-01-23T09:33:10.844Z,1033.22
2023-01-23T09:34:10.798Z,1033.21
2023-01-23T09:35:10.796Z,1033.30
2023-01-23T09:36:10.784Z,1033.30
2023-01-23T09:37:10.766Z,1033.23
2023-01-23T09:38:10.769Z,1033.24
2023-01-23T09:39:10.728Z,1033.26
2023-01-23T09:40:10.718Z,1033.28
2023-01-23T09:41:10.702Z,1033.26
2023-01-23T09:42:10.682Z,1033.22
2023-01-23T09:43:10.710Z,1033.22
2023-01-23T09:44:10.654Z,1033.18
2023-01-23T09:45:10.654Z,1033.19
2023-01-23T09:46:10.664Z,1033.16
2023-01-23T09:47:10.627Z,1033.19
2023-01-23T09:48:10.625Z,1033.24
2023-01-23T09:49:10.600Z,1033.22
2023-01-23T09:50:10.586Z,1033.16
2023-01-23T09:51:10.601Z,1033.19
2023-01-23T09:52:10.568Z,1033.17
2023-01-23T09:53:10.545Z,1033.14
2023-01-23T09:54:10.557Z,1033.14
2023-01-23T09:55:10.529Z,1033.21
2023-01-23T09:56:10.558Z,1033.20
2023-01-23T09:57:10.498Z,1033.19
2023-01-23T09:58:10.519Z,1033.24
2023-01-23T09:59:10.510Z,1033.27
2023-01-23T10:00:10.469Z,1033.25
2023-01-23T10:01:10.449Z,1033.28
2023-01-23T10:02:10.448Z,1033.29
2023-01-23T10:03:10.530Z,1033.21
2023-01-23T10:04:10.429Z,1033.27
2023-01-23T10:05:10.394Z,1033.21
2023-01-23T10:06:10.381Z,1033.25
2023-01-23T10:07:10.367Z,1033.25
2023-01-23T10:08:10.344Z,1033.27
2023-01-23T10:09:10.324Z,1033.27
2023-01-23T10:10:10.347Z,1033.33
2023-01-23T10:11:10.317Z,1033.28
2023-01-23T10:12:10.316Z,1033.28
2023-01-23T10:13:10.281Z,1033.29
2023-01-23T10:14:10.266Z,1033.31
2023-01-23T10:15:10.277Z,1033.31
2023-01-23T10:16:10.297Z,1033.27
2023-01-23T10:17:10.313Z,1033.29
2023-01-23T10:18:10.225Z,1033.28
2023-01-23T10:19:10.202Z,1033.33
2023-01-23T10:20:10.235Z,1033.26
2023-01-23T10:21:10.188Z,1033.24
2023-01-23T10:22:17.106Z,1033.26
2023-01-23T10:23:11.177Z,1033.28
2023-01-23T10:24:10.144Z,1033.28
2023-01-23T10:25:10.135Z,1033.31
2023-01-23T10:26:10.139Z,1033.31
2023-01-23T10:27:10.101Z,1033.34
2023-01-23T10:28:10.915Z,1033.43
2023-01-23T10:29:10.087Z,1033.42
2023-01-23T10:30:10.092Z,1033.36
2023-01-23T10:31:10.181Z,1033.44
2023-01-23T10:32:10.064Z,1033.44
2023-01-23T10:33:10.035Z,1033.43
2023-01-23T10:34:10.033Z,1033.44
2023-01-23T10:35:10.009Z,1033.41
2023-01-23T10:36:09.991Z,1033.46
2023-01-23T10:37:09.999Z,1033.36
2023-01-23T10:38:09.977Z,1033.42
2023-01-23T10:39:09.962Z,1033.45
2023-01-23T10:40:09.947Z,1033.47
2023-01-23T10:41:09.913Z,1033.45
2023-01-23T10:42:09.913Z,1033.46
2023-01-23T10:43:09.965Z,1033.47
2023-01-23T10:44:09.880Z,1033.39
2023-01-23T10:45:09.877Z,1033.38
2023-01-23T10:46:09.894Z,1033.44
2023-01-23T10:47:09.854Z,1033.43
2023-01-23T10:48:16.130Z,1033.34
2023-01-23T10:49:10.815Z,1033.43
2023-01-23T10:50:09.803Z,1033.46
2023-01-23T10:51:09.831Z,1033.43
2023-01-23T10:52:09.800Z,1033.47
2023-01-23T10:53:09.784Z,1033.44
2023-01-23T10:54:11.475Z,1033.42
2023-01-23T10:55:09.734Z,1033.46
2023-01-23T10:56:09.727Z,1033.42
2023-01-23T10:57:09.754Z,1033.38
2023-01-23T10:58:09.745Z,1033.35
2023-01-23T10:59:09.693Z,1033.35
2023-01-23T11:00:09.701Z,1033.36
2023-01-23T11:01:09.725Z,1033.34
2023-01-23T11:02:09.780Z,1033.36
2023-01-23T11:03:09.673Z,1033.34
2023-01-23T11:04:09.636Z,1033.31
2023-01-23T11:05:09.613Z,1033.33
2023-01-23T11:06:09.636Z,1033.35
2023-01-23T11:07:09.594Z,1033.35
2023-01-23T11:08:09.585Z,1033.34
2023-01-23T11:09:09.562Z,1033.40
2023-01-23T11:10:09.541Z,1033.38
2023-01-23T11:11:09.549Z,1033.36
2023-01-23T11:12:09.525Z,1033.40
2023-01-23T11:13:09.556Z,1033.36
2023-01-23T11:14:09.549Z,1033.39
2023-01-23T11:15:09.511Z,1033.36
2023-01-23T11:16:09.564Z,1033.37
2023-01-23T11:17:09.467Z,1033.31
2023-01-23T11:18:09.476Z,1033.35
2023-01-23T11:19:09.451Z,1033.31
2023-01-23T11:20:09.522Z,1033.30
2023-01-23T11:21:09.403Z,1033.28
2023-01-23T11:22:09.406Z,1033.28
2023-01-23T11:23:09.397Z,1033.22
2023-01-23T11:24:09.375Z,1033.24
2023-01-23T11:25:09.367Z,1033.21
2023-01-23T11:26:09.353Z,1033.24
2023-01-23T11:27:09.336Z,1033.26
2023-01-23T11:28:09.337Z,1033.25
2023-01-23T11:29:10.021Z,1033.26
2023-01-23T11:30:09.295Z,1033.28
2023-01-23T11:31:14.589Z,1033.27
2023-01-23T11:32:10.350Z,1033.28
2023-01-23T11:33:09.250Z,1033.30
2023-01-23T11:34:09.257Z,1033.34
2023-01-23T11:35:09.238Z,1033.27
2023-01-23T11:36:09.229Z,1033.26
2023-01-23T11:37:09.224Z,1033.26
2023-01-23T11:38:09.216Z,1033.25
2023-01-23T11:39:09.180Z,1033.19
2023-01-23T11:40:09.228Z,1033.22
2023-01-23T11:41:09.145Z,1033.17
2023-01-23T11:42:09.142Z,1033.17
2023-01-23T11:43:09.152Z,1033.17
2023-01-23T11:44:11.289Z,1033.13
2023-01-23T11:45:09.093Z,1033.14
2023-01-23T11:46:09.131Z,1033.11
2023-01-23T11:47:09.117Z,1033.21
2023-01-23T11:48:09.074Z,1033.19
2023-01-23T11:49:09.043Z,1033.13
2023-01-23T11:50:09.046Z,1033.13
2023-01-23T11:51:09.037Z,1033.07
2023-01-23T11:52:09.012Z,1033.16
2023-01-23T11:53:09.030Z,1033.12
2023-01-23T11:54:09.046Z,1033.11
2023-01-23T11:55:08.973Z,1033.11
2023-01-23T11:56:09.003Z,1033.12
2023-01-23T11:57:08.971Z,1033.08
2023-01-23T11:58:08.956Z,1033.09
2023-01-23T11:59:08.936Z,1033.07
2023-01-23T12:00:08.921Z,1033.02
2023-01-23T12:01:08.924Z,1032.93
2023-01-23T12:02:08.894Z,1032.98
2023-01-23T12:03:08.876Z,1032.99
2023-01-23T12:04:08.925Z,1033.02
2023-01-23T12:05:08.869Z,1033.02
2023-01-23T12:06:19.581Z,1033.01
2023-01-23T12:07:09.835Z,1033.07
2023-01-23T12:08:08.831Z,1033.04
2023-01-23T12:09:08.805Z,1032.98
2023-01-23T12:10:08.805Z,1032.96
2023-01-23T12:11:08.769Z,1033.01
2023-01-23T12:12:08.793Z,1032.99
2023-01-23T12:13:08.753Z,1032.93
2023-01-23T12:14:08.745Z,1032.90
2023-01-23T12:15:08.721Z,1032.85
2023-01-23T12:16:08.789Z,1032.87
2023-01-23T12:17:08.705Z,1032.87
2023-01-23T12:18:08.702Z,1032.87
2023-01-23T12:19:08.680Z,1032.82
2023-01-23T12:20:08.700Z,1032.85
2023-01-23T12:21:08.657Z,1032.83
2023-01-23T12:22:08.633Z,1032.86
2023-01-23T12:23:08.612Z,1032.87
2023-01-23T12:24:08.623Z,1032.81
2023-01-23T12:25:08.615Z,1032.90
2023-01-23T12:26:08.622Z,1032.85
2023-01-23T12:27:08.579Z,1032.89
2023-01-23T12:28:08.573Z,1032.94
2023-01-23T12:29:08.557Z,1032.88
2023-01-23T12:30:08.556Z,1032.90
2023-01-23T12:31:08.656Z,1032.86
2023-01-23T12:32:08.615Z,1032.86
2023-01-23T12:33:08.492Z,1032.90
2023-01-23T12:34:08.486Z,1032.85
2023-01-23T12:35:08.472Z,1032.82
2023-01-23T12:36:08.462Z,1032.78
2023-01-23T12:37:14.446Z,1032.82
2023-01-23T12:38:09.434Z,1032.73
2023-01-23T12:39:08.426Z,1032.77
2023-01-23T12:40:08.815Z,1032.83
2023-01-23T12:41:08.406Z,1032.83
2023-01-23T12:42:08.395Z,1032.82
2023-01-23T12:43:08.362Z,1032.81
2023-01-23T12:44:08.369Z,1032.81
2023-01-23T12:45:08.367Z,1032.79
2023-01-23T12:46:08.342Z,1032.75
2023-01-23T12:47:08.351Z,1032.72
2023-01-23T12:48:08.513Z,1032.71
2023-01-23T12:49:08.306Z,1032.70
2023-01-23T12:50:08.450Z,1032.70
2023-01-23T12:51:15.383Z,1032.71
2023-01-23T12:52:08.275Z,1032.69
2023-01-23T12:53:08.274Z,1032.69
2023-01-23T12:54:08.254Z,1032.70
2023-01-23T12:55:08.245Z,1032.69
2023-01-23T12:56:08.242Z,1032.62
2023-01-23T12:57:08.228Z,1032.65
2023-01-23T12:58:09.638Z,1032.72
2023-01-23T12:59:08.198Z,1032.67
2023-01-23T13:00:08.175Z,1032.71
2023-01-23T13:01:08.301Z,1032.72
2023-01-23T13:02:08.182Z,1032.67
2023-01-23T13:03:08.136Z,1032.77
2023-01-23T13:04:08.134Z,1032.75
2023-01-23T13:05:08.098Z,1032.73
2023-01-23T13:06:08.095Z,1032.73
2023-01-23T13:07:08.088Z,1032.77
2023-01-23T13:08:08.075Z,1032.76
2023-01-23T13:09:17.300Z,1032.72
2023-01-23T13:10:09.036Z,1032.75
2023-01-23T13:11:08.023Z,1032.81
2023-01-23T13:12:08.049Z,1032.82
2023-01-23T13:13:07.990Z,1032.81
2023-01-23T13:14:07.997Z,1032.84
2023-01-23T13:15:17.270Z,1032.84
2023-01-23T13:16:08.989Z,1032.85
2023-01-23T13:17:07.942Z,1032.86
2023-01-23T13:18:07.957Z,1032.83
2023-01-23T13:19:07.924Z,1032.80
2023-01-23T13:20:07.916Z,1032.81
2023-01-23T13:21:07.890Z,1032.84
2023-01-23T13:22:09.398Z,1032.90
2023-01-23T13:23:07.899Z,1032.89
2023-01-23T13:24:07.884Z,1032.88
2023-01-23T13:25:07.879Z,1032.91
2023-01-23T13:26:07.845Z,1032.89
2023-01-23T13:27:07.821Z,1032.88
2023-01-23T13:28:08.009Z,1032.89
2023-01-23T13:29:07.801Z,1032.84
2023-01-23T13:30:07.795Z,1032.83
2023-01-23T13:31:07.824Z,1032.80
2023-01-23T13:32:07.911Z,1032.80
2023-01-23T13:33:07.764Z,1032.85
2023-01-23T13:34:15.689Z,1032.87
2023-01-23T13:35:08.734Z,1032.86
2023-01-23T13:36:07.710Z,1032.85
2023-01-23T13:37:07.701Z,1032.92
2023-01-23T13:38:07.692Z,1032.87
2023-01-23T13:39:07.700Z,1032.86
2023-01-23T13:40:07.673Z,1032.86
2023-01-23T13:41:07.656Z,1032.85
2023-01-23T13:42:07.627Z,1032.85
2023-01-23T13:43:07.652Z,1032.87
2023-01-23T13:44:07.621Z,1032.86
2023-01-23T13:45:07.604Z,1032.80
2023-01-23T13:46:07.643Z,1032.78
2023-01-23T13:47:07.584Z,1032.77
2023-01-23T13:48:07.567Z,1032.82
2023-01-23T13:49:07.555Z,1032.80
2023-01-23T13:50:07.546Z,1032.81
2023-01-23T13:51:07.535Z,1032.86
2023-01-23T13:52:07.501Z,1032.83
2023-01-23T13:53:07.489Z,1032.79
2023-01-23T13:54:07.480Z,1032.74
2023-01-23T13:55:07.480Z,1032.75
2023-01-23T13:56:07.474Z,1032.76
2023-01-23T13:57:07.456Z,1032.74
2023-01-23T13:58:07.750Z,1032.74
2023-01-23T13:59:07.430Z,1032.73
2023-01-23T14:00:07.400Z,1032.70
2023-01-23T14:01:07.415Z,1032.78
2023-01-23T14:02:07.372Z,1032.76
2023-01-23T14:03:07.374Z,1032.77
2023-01-23T14:04:07.339Z,1032.78
2023-01-23T14:05:07.353Z,1032.80
2023-01-23T14:06:07.353Z,1032.81
2023-01-23T14:07:07.339Z,1032.89
2023-01-23T14:08:07.315Z,1032.87
2023-01-23T14:09:07.301Z,1032.95
2023-01-23T14:10:07.291Z,1032.94
2023-01-23T14:11:07.280Z,1032.98
2023-01-23T14:12:07.238Z,1032.94
2023-01-23T14:13:07.251Z,1032.89
2023-01-23T14:14:07.213Z,1032.97
2023-01-23T14:15:07.240Z,1032.90
2023-01-23T14:16:07.211Z,1032.92
2023-01-23T14:17:07.199Z,1032.92
2023-01-23T14:18:07.179Z,1033.02
2023-01-23T14:19:07.182Z,1032.97
2023-01-23T14:20:07.154Z,1032.99
2023-01-23T14:21:07.164Z,1032.99
2023-01-23T14:22:07.149Z,1032.95
2023-01-23T14:23:07.181Z,1032.99
2023-01-23T14:24:07.120Z,1032.97
2023-01-23T14:25:07.095Z,1032.98
2023-01-23T14:26:07.073Z,1032.96
2023-01-23T14:27:08.274Z,1032.99
2023-01-23T14:28:07.041Z,1033.01
2023-01-23T14:29:07.034Z,1033.05
2023-01-23T14:30:07.062Z,1032.99
2023-01-23T14:31:07.069Z,1033.07
2023-01-23T14:32:07.111Z,1033.07
2023-01-23T14:33:06.993Z,1033.00
2023-01-23T14:34:10.394Z,1033.05
2023-01-23T14:35:06.950Z,1033.00
2023-01-23T14:36:06.964Z,1033.03
2023-01-23T14:37:06.940Z,1033.04
2023-01-23T14:38:06.931Z,1033.00
2023-01-23T14:39:06.902Z,1033.04
2023-01-23T14:40:12.136Z,1032.99
2023-01-23T14:41:07.928Z,1032.96
2023-01-23T14:42:11.620Z,1033.07
2023-01-23T14:43:07.920Z,1033.05
2023-01-23T14:44:06.842Z,1033.07
2023-01-23T14:45:06.828Z,1033.07
2023-01-23T14:46:06.844Z,1033.07
2023-01-23T14:47:06.814Z,1033.04
2023-01-23T14:48:07.523Z,1033.05
2023-01-23T14:49:06.786Z,1033.02
2023-01-23T14:50:06.760Z,1033.14
2023-01-23T14:51:06.763Z,1033.05
2023-01-23T14:52:06.743Z,1033.10
2023-01-23T14:53:06.883Z,1033.10
2023-01-23T14:54:10.402Z,1033.07
2023-01-23T14:55:32.682Z,1033.04
2023-01-23T14:56:07.678Z,1033.16
2023-01-23T14:57:06.687Z,1033.21
2023-01-23T14:58:06.685Z,1033.20
2023-01-23T14:59:06.689Z,1033.19
2023-01-23T15:00:06.655Z,1033.21
2023-01-23T15:01:06.644Z,1033.17
2023-01-23T15:02:19.736Z,1033.20
2023-01-23T15:03:07.654Z,1033.19
2023-01-23T15:04:06.578Z,1033.16
2023-01-23T15:05:06.593Z,1033.19
2023-01-23T15:06:06.571Z,1033.18
2023-01-23T15:07:06.559Z,1033.20
2023-01-23T15:08:06.557Z,1033.21
2023-01-23T15:09:06.544Z,1033.20
2023-01-23T15:10:06.513Z,1033.21
2023-01-23T15:11:06.561Z,1033.25
2023-01-23T15:12:06.492Z,1033.22
2023-01-23T15:13:06.499Z,1033.26
2023-01-23T15:14:06.459Z,1033.19
2023-01-23T15:15:06.441Z,1033.26
2023-01-23T15:16:06.447Z,1033.30
2023-01-23T15:17:06.487Z,1033.38
2023-01-23T15:18:06.400Z,1033.33
2023-01-23T15:19:06.425Z,1033.38
2023-01-23T15:20:06.382Z,1033.35
2023-01-23T15:21:06.370Z,1033.45
2023-01-23T15:22:06.366Z,1033.32
2023-01-23T15:23:06.339Z,1033.35
2023-01-23T15:24:06.356Z,1033.40
2023-01-23T15:25:06.331Z,1033.43
2023-01-23T15:26:06.316Z,1033.38
2023-01-23T15:27:06.309Z,1033.45
2023-01-23T15:28:06.283Z,1033.44
2023-01-23T15:29:06.596Z,1033.38
2023-01-23T15:30:06.263Z,1033.45
2023-01-23T15:31:06.295Z,1033.49
2023-01-23T15:32:06.322Z,1033.40
2023-01-23T15:33:06.228Z,1033.50
2023-01-23T15:34:06.203Z,1033.55
2023-01-23T15:35:06.198Z,1033.50
2023-01-23T15:36:06.199Z,1033.52
2023-01-23T15:37:06.175Z,1033.51
2023-01-23T15:38:08.544Z,1033.50
2023-01-23T15:39:06.143Z,1033.49
2023-01-23T15:40:06.142Z,1033.51
2023-01-23T15:41:06.161Z,1033.43
2023-01-23T15:42:06.092Z,1033.51
2023-01-23T15:43:06.092Z,1033.52
2023-01-23T15:44:06.067Z,1033.55
2023-01-23T15:45:06.057Z,1033.54
2023-01-23T15:46:06.120Z,1033.54
2023-01-23T15:47:06.047Z,1033.58
2023-01-23T15:48:06.028Z,1033.56
2023-01-23T15:49:10.768Z,1033.58
2023-01-23T15:50:07.016Z,1033.60
2023-01-23T15:51:05.990Z,1033.58
2023-01-23T15:52:05.991Z,1033.56
2023-01-23T15:53:05.960Z,1033.56
2023-01-23T15:54:05.946Z,1033.55
2023-01-23T15:55:05.941Z,1033.52
2023-01-23T15:56:05.921Z,1033.58
2023-01-23T15:57:07.840Z,1033.56
2023-01-23T15:58:05.897Z,1033.61
2023-01-23T15:59:05.901Z,1033.52
2023-01-23T16:00:05.872Z,1033.55
2023-01-23T16:01:05.897Z,1033.60
2023-01-23T16:02:05.879Z,1033.54
2023-01-23T16:03:05.850Z,1033.53
2023-01-23T16:04:05.846Z,1033.54
2023-01-23T16:05:05.808Z,1033.58
2023-01-23T16:06:06.442Z,1033.57
2023-01-23T16:07:05.797Z,1033.55
2023-01-23T16:08:05.800Z,1033.58
2023-01-23T16:09:06.140Z,1033.53
2023-01-23T16:10:05.757Z,1033.55
2023-01-23T16:11:05.729Z,1033.60
2023-01-23T16:12:05.743Z,1033.64
2023-01-23T16:13:05.722Z,1033.62
2023-01-23T16:14:05.698Z,1033.66
2023-01-23T16:15:05.687Z,1033.67
2023-01-23T16:16:05.687Z,1033.64
2023-01-23T16:17:16.245Z,1033.61
2023-01-23T16:18:06.663Z,1033.60
2023-01-23T16:19:05.650Z,1033.62
2023-01-23T16:20:05.643Z,1033.56
2023-01-23T16:21:05.645Z,1033.56
2023-01-23T16:22:05.911Z,1033.62
2023-01-23T16:23:14.482Z,1033.64
2023-01-23T16:24:06.789Z,1033.59
2023-01-23T16:25:05.581Z,1033.59
2023-01-23T16:26:05.557Z,1033.63
2023-01-23T16:27:05.540Z,1033.62
2023-01-23T16:28:05.531Z,1033.67
2023-01-23T16:29:13.668Z,1033.65
2023-01-23T16:30:06.500Z,1033.67
2023-01-23T16:31:05.521Z,1033.70
2023-01-23T16:32:05.592Z,1033.71
2023-01-23T16:33:05.458Z,1033.73
2023-01-23T16:34:05.459Z,1033.76
2023-01-23T16:35:05.428Z,1033.72
2023-01-23T16:36:05.416Z,1033.74
2023-01-23T16:37:05.411Z,1033.78
2023-01-23T16:38:05.461Z,1033.79
2023-01-23T16:39:06.220Z,1033.79
2023-01-23T16:40:05.380Z,1033.81
2023-01-23T16:41:05.371Z,1033.82
2023-01-23T16:42:05.349Z,1033.79
2023-01-23T16:43:05.330Z,1033.84
2023-01-23T16:44:05.325Z,1033.83
2023-01-23T16:45:05.332Z,1033.85
2023-01-23T16:46:06.076Z,1033.83
2023-01-23T16:47:05.321Z,1033.85
2023-01-23T16:48:06.375Z,1033.77
2023-01-23T16:49:05.257Z,1033.82
2023-01-23T16:50:05.269Z,1033.82
2023-01-23T16:51:05.242Z,1033.81
2023-01-23T16:52:05.239Z,1033.75
2023-01-23T16:53:05.220Z,1033.74
2023-01-23T16:54:17.659Z,1033.75
2023-01-23T16:55:06.205Z,1033.79
2023-01-23T16:56:05.165Z,1033.82
2023-01-23T16:57:05.180Z,1033.75
2023-01-23T16:58:05.161Z,1033.74
2023-01-23T16:59:05.155Z,1033.76
2023-01-23T17:00:05.136Z,1033.74
2023-01-23T17:01:05.191Z,1033.78
2023-01-23T17:02:05.136Z,1033.70
2023-01-23T17:03:05.095Z,1033.79
2023-01-23T17:04:05.069Z,1033.75
2023-01-23T17:05:05.075Z,1033.79
2023-01-23T17:06:05.063Z,1033.83
2023-01-23T17:07:05.048Z,1033.82
2023-01-23T17:08:05.019Z,1033.88
2023-01-23T17:09:05.008Z,1033.82
2023-01-23T17:10:05.007Z,1033.89
2023-01-23T17:11:05.010Z,1033.89
2023-01-23T17:12:04.990Z,1033.88
2023-01-23T17:13:04.976Z,1033.91
2023-01-23T17:14:04.969Z,1033.82
2023-01-23T17:15:04.932Z,1033.86
2023-01-23T17:16:08.800Z,1033.81
2023-01-23T17:17:06.009Z,1033.85
2023-01-23T17:18:04.909Z,1033.88
2023-01-23T17:19:04.906Z,1033.88
2023-01-23T17:20:04.884Z,1033.97
2023-01-23T17:21:04.878Z,1033.94
2023-01-23T17:22:04.838Z,1033.94
2023-01-23T17:23:04.883Z,1033.92
2023-01-23T17:24:04.845Z,1033.94
2023-01-23T17:25:04.820Z,1033.90
2023-01-23T17:26:04.806Z,1033.91
2023-01-23T17:27:04.792Z,1033.91
2023-01-23T17:28:12.941Z,1033.91
2023-01-23T17:29:05.785Z,1033.89
2023-01-23T17:30:05.571Z,1033.87
2023-01-23T17:31:04.997Z,1033.90
2023-01-23T17:32:04.786Z,1033.89
2023-01-23T17:33:04.749Z,1033.90
2023-01-23T17:34:04.703Z,1033.84
2023-01-23T17:35:04.973Z,1033.83
2023-01-23T17:36:04.711Z,1033.92
2023-01-23T17:37:04.668Z,1033.85
2023-01-23T17:38:04.647Z,1033.85
2023-01-23T17:39:04.637Z,1033.77
2023-01-23T17:40:04.618Z,1033.86
2023-01-23T17:41:04.647Z,1033.84
2023-01-23T17:42:04.622Z,1033.87
2023-01-23T17:43:04.586Z,1033.84
2023-01-23T17:44:04.574Z,1033.89
2023-01-23T17:45:04.578Z,1033.88
2023-01-23T17:46:04.585Z,1033.91
2023-01-23T17:47:04.557Z,1033.90
2023-01-23T17:48:04.547Z,1033.90
2023-01-23T17:49:04.570Z,1033.98
2023-01-23T17:50:04.548Z,1033.94
2023-01-23T17:51:04.501Z,1033.96
2023-01-23T17:52:04.479Z,1034.02
2023-01-23T17:53:04.472Z,1034.03
2023-01-23T17:54:04.455Z,1034.03
2023-01-23T17:55:04.424Z,1034.02
2023-01-23T17:56:04.453Z,1034.00
2023-01-23T17:57:04.410Z,1033.97
2023-01-23T17:58:04.408Z,1033.99
2023-01-23T17:59:04.383Z,1033.96
2023-01-23T18:00:04.392Z,1033.97
2023-01-23T18:01:04.402Z,1034.00
2023-01-23T18:02:04.381Z,1033.96
2023-01-23T18:03:04.345Z,1033.98
2023-01-23T18:04:04.350Z,1033.98
2023-01-23T18:05:04.317Z,1033.98
2023-01-23T18:06:04.317Z,1033.98
2023-01-23T18:07:04.283Z,1033.98
2023-01-23T18:08:04.284Z,1033.91
2023-01-23T18:09:04.301Z,1033.98
2023-01-23T18:10:04.243Z,1033.94
2023-01-23T18:11:04.245Z,1033.89
2023-01-23T18:12:04.242Z,1033.94
2023-01-23T18:13:04.381Z,1033.91
2023-01-23T18:14:04.223Z,1033.87
2023-01-23T18:15:04.213Z,1033.92
2023-01-23T18:16:04.177Z,1033.92
2023-01-23T18:17:04.205Z,1033.92
2023-01-23T18:18:04.187Z,1033.91
2023-01-23T18:19:04.141Z,1033.86
2023-01-23T18:20:04.124Z,1033.90
2023-01-23T18:21:04.125Z,1033.94
2023-01-23T18:22:04.104Z,1033.94
2023-01-23T18:23:04.096Z,1033.91
2023-01-23T18:24:04.172Z,1033.90
2023-01-23T18:25:04.059Z,1033.89
2023-01-23T18:26:04.066Z,1033.93
2023-01-23T18:27:04.032Z,1033.96
2023-01-23T18:28:04.033Z,1033.96
2023-01-23T18:29:04.015Z,1033.95
2023-01-23T18:30:04.017Z,1033.94
2023-01-23T18:31:04.044Z,1033.89
2023-01-23T18:32:04.068Z,1033.93
2023-01-23T18:33:03.968Z,1033.98
2023-01-23T18:34:03.950Z,1033.96
2023-01-23T18:35:03.935Z,1033.96
2023-01-23T18:36:03.934Z,1033.92
2023-01-23T18:37:03.933Z,1033.94
2023-01-23T18:38:03.908Z,1033.96
2023-01-23T18:39:03.906Z,1033.96
2023-01-23T18:40:03.897Z,1033.94
2023-01-23T18:41:03.874Z,1033.97
2023-01-23T18:42:03.845Z,1034.00
2023-01-23T18:43:03.845Z,1033.97
2023-01-23T18:44:03.844Z,1033.99
2023-01-23T18:45:03.815Z,1033.95
2023-01-23T18:46:03.839Z,1033.95
2023-01-23T18:47:03.782Z,1033.98
2023-01-23T18:48:04.671Z,1033.96
2023-01-23T18:49:03.763Z,1033.90
2023-01-23T18:50:03.825Z,1033.90
2023-01-23T18:52:00.872Z,1033.99
2023-01-23T18:53:00.852Z,1033.95
2023-01-23T18:54:00.830Z,1033.92
2023-01-23T18:55:00.845Z,1033.99